createdAt,value
2023-03-26T00:00:54.270Z,8.72
2023-03-26T00:06:03.481Z,8.73
2023-03-26T00:11:06.425Z,8.67
2023-03-26T00:16:08.676Z,8.71
2023-03-26T00:21:12.885Z,8.75
2023-03-26T00:26:15.570Z,8.75
2023-03-26T00:31:17.585Z,8.78
2023-03-26T00:36:20.863Z,8.77
2023-03-26T00:41:25.923Z,8.81
2023-03-26T00:46:28.848Z,8.82
2023-03-26T00:51:33.258Z,8.78
2023-03-26T00:56:35.155Z,8.84
2023-03-26T01:01:37.635Z,8.80
2023-03-26T01:06:43.283Z,8.81
2023-03-26T01:11:45.120Z,8.79
2023-03-26T01:16:49.850Z,8.77
2023-03-26T01:21:53.010Z,8.80
2023-03-26T01:27:25.819Z,8.81
2023-03-26T01:32:37.862Z,8.77
2023-03-26T01:37:43.637Z,8.77
2023-03-26T01:42:49.004Z,8.82
2023-03-26T01:47:50.855Z,8.79
2023-03-26T01:52:52.583Z,8.81
2023-03-26T01:57:59.732Z,8.80
2023-03-26T02:03:18.139Z,8.79
2023-03-26T02:08:22.767Z,8.75
2023-03-26T02:13:26.237Z,8.78
2023-03-26T02:18:36.692Z,8.76
2023-03-26T02:23:40.212Z,8.71
2023-03-26T02:28:43.241Z,8.70
2023-03-26T02:33:47.518Z,8.63
2023-03-26T02:38:50.106Z,8.61
2023-03-26T02:43:53.162Z,8.59
2023-03-26T02:48:58.811Z,8.46
2023-03-26T02:54:01.131Z,8.36
2023-03-26T02:59:25.704Z,8.36
2023-03-26T03:04:47.403Z,8.29
2023-03-26T03:09:50.637Z,8.27
2023-03-26T03:15:16.796Z,8.23
2023-03-26T03:20:18.800Z,8.23
2023-03-26T03:25:22.096Z,8.12
2023-03-26T03:30:25.916Z,7.98
2023-03-26T03:35:48.956Z,7.92
2023-03-26T03:40:51.156Z,7.86
2023-03-26T03:45:54.989Z,7.75
2023-03-26T03:51:18.335Z,7.65
2023-03-26T03:56:36.076Z,7.56
2023-03-26T04:01:59.147Z,7.44
2023-03-26T04:07:07.833Z,7.39
2023-03-26T04:12:30.934Z,7.42
2023-03-26T04:17:42.334Z,7.54
2023-03-26T04:22:45.665Z,7.63
2023-03-26T04:27:49.970Z,7.72
2023-03-26T04:33:00.791Z,7.79
2023-03-26T04:38:07.140Z,7.81
2023-03-26T04:43:13.453Z,7.90
2023-03-26T04:48:32.756Z,7.90
2023-03-26T04:53:35.127Z,7.96
2023-03-26T04:59:01.746Z,7.96
2023-03-26T05:04:08.229Z,8.02
2023-03-26T05:09:10.671Z,7.99
2023-03-26T05:14:44.870Z,8.07
2023-03-26T05:19:53.665Z,8.10
2023-03-26T05:24:56.213Z,8.10
2023-03-26T05:30:00.698Z,8.13
2023-03-26T05:35:04.736Z,8.14
2023-03-26T05:40:12.228Z,8.12
2023-03-26T05:45:43.487Z,8.17
2023-03-26T05:50:55.695Z,8.24
2023-03-26T05:55:58.554Z,8.26
2023-03-26T06:01:19.595Z,8.28
2023-03-26T06:06:57.633Z,8.35
2023-03-26T06:11:59.799Z,8.40
2023-03-26T06:17:04.762Z,8.90
2023-03-26T06:22:27.236Z,8.94
2023-03-26T06:27:47.294Z,8.99
2023-03-26T06:33:04.294Z,8.85
2023-03-26T06:38:14.186Z,8.91
2023-03-26T06:43:16.228Z,8.91
2023-03-26T06:48:33.353Z,8.91
2023-03-26T06:53:48.390Z,8.96
2023-03-26T06:58:54.837Z,9.01
2023-03-26T07:04:31.635Z,9.03
2023-03-26T07:09:53.551Z,9.09
2023-03-26T07:15:13.872Z,9.10
2023-03-26T07:20:39.019Z,9.21
2023-03-26T07:25:42.651Z,9.36
2023-03-26T07:31:00.283Z,9.60
2023-03-26T07:36:18.144Z,10.02
2023-03-26T07:41:43.565Z,10.17
2023-03-26T07:47:26.153Z,10.34
2023-03-26T07:52:50.158Z,10.24
2023-03-26T07:58:11.588Z,10.19
2023-03-26T08:03:50.928Z,10.22
2023-03-26T08:09:13.380Z,10.43
2023-03-26T08:14:40.896Z,10.46
2023-03-26T08:19:54.171Z,10.39
2023-03-26T08:25:05.225Z,10.66
2023-03-26T08:30:11.145Z,11.14
2023-03-26T08:35:13.545Z,11.54
2023-03-26T08:40:18.344Z,11.43
2023-03-26T08:45:51.377Z,11.02
2023-03-26T08:51:07.668Z,11.25
2023-03-26T08:56:09.972Z,11.55
2023-03-26T09:01:46.535Z,10.98
2023-03-26T09:06:57.635Z,10.64
2023-03-26T09:12:23.749Z,10.56
2023-03-26T09:17:51.309Z,10.68
2023-03-26T09:23:03.581Z,15.17
2023-03-26T09:28:21.919Z,18.07
2023-03-26T09:33:56.751Z,18.70
2023-03-26T09:39:04.722Z,15.87
2023-03-26T09:44:39.064Z,14.68
2023-03-26T09:49:45.870Z,17.09
2023-03-26T09:55:02.596Z,20.09
2023-03-26T10:00:10.012Z,21.23
2023-03-26T10:05:24.545Z,23.60
2023-03-26T10:10:30.990Z,20.18
2023-03-26T10:15:34.352Z,17.71
2023-03-26T10:20:43.469Z,17.31
2023-03-26T10:25:54.222Z,15.67
2023-03-26T10:31:17.236Z,14.44
2023-03-26T10:36:29.487Z,14.33
2023-03-26T10:41:35.194Z,16.40
2023-03-26T10:46:44.020Z,20.00
2023-03-26T10:51:51.193Z,20.88
2023-03-26T10:56:56.600Z,22.66
2023-03-26T11:02:05.499Z,23.29
2023-03-26T11:07:11.823Z,24.03
2023-03-26T11:12:26.371Z,23.51
2023-03-26T11:17:41.766Z,19.75
2023-03-26T11:22:50.624Z,17.26
2023-03-26T11:28:00.267Z,15.50
2023-03-26T11:33:03.370Z,14.61
2023-03-26T11:38:06.687Z,14.16
2023-03-26T11:43:11.648Z,13.64
2023-03-26T11:48:14.734Z,13.27
2023-03-26T11:53:19.224Z,13.05
2023-03-26T11:58:27.792Z,13.08
2023-03-26T12:03:30.329Z,13.18
2023-03-26T12:08:34.194Z,13.38
2023-03-26T12:13:42.130Z,13.46
2023-03-26T12:18:44.253Z,13.57
2023-03-26T12:23:58.332Z,13.57
2023-03-26T12:29:05.872Z,13.46
2023-03-26T12:34:13.381Z,13.55
2023-03-26T12:40:09.044Z,13.61
2023-03-26T12:45:00.802Z,13.35
2023-03-26T12:50:05.798Z,13.12
2023-03-26T12:55:14.787Z,12.82
2023-03-26T13:00:25.902Z,12.53
2023-03-26T13:05:34.247Z,12.44
2023-03-26T13:10:51.611Z,12.67
2023-03-26T13:15:56.555Z,12.92
2023-03-26T13:21:02.002Z,13.10
2023-03-26T13:26:10.373Z,13.11
2023-03-26T13:31:17.815Z,13.05
2023-03-26T13:36:24.296Z,12.95
2023-03-26T13:41:31.514Z,13.10
2023-03-26T13:46:36.175Z,13.13
2023-03-26T13:51:39.796Z,13.32
2023-03-26T13:56:43.698Z,13.32
2023-03-26T14:01:51.153Z,13.25
2023-03-26T14:06:57.215Z,13.23
2023-03-26T14:12:33.846Z,13.11
2023-03-26T14:17:39.236Z,12.86
2023-03-26T14:22:46.185Z,12.70
2023-03-26T14:27:54.329Z,12.71
2023-03-26T14:33:05.864Z,12.68
2023-03-26T14:38:39.762Z,12.58
2023-03-26T14:43:55.431Z,12.43
2023-03-26T14:49:05.727Z,12.44
2023-03-26T14:54:11.122Z,12.44
2023-03-26T14:59:23.049Z,12.30
2023-03-26T15:05:00.771Z,12.21
2023-03-26T15:10:26.774Z,11.98
2023-03-26T15:15:54.070Z,11.83
2023-03-26T15:21:29.175Z,11.86
2023-03-26T15:26:59.159Z,11.85
2023-03-26T15:32:30.207Z,11.81
2023-03-26T15:38:20.829Z,11.84
2023-03-26T15:43:23.860Z,11.83
2023-03-26T15:48:32.324Z,11.75
2023-03-26T15:53:36.599Z,11.69
2023-03-26T15:58:44.991Z,11.53
2023-03-26T16:03:51.094Z,11.47
2023-03-26T16:08:57.251Z,11.46
2023-03-26T16:14:12.409Z,11.29
2023-03-26T16:19:36.120Z,11.20
2023-03-26T16:24:38.545Z,11.19
2023-03-26T16:30:08.716Z,11.07
2023-03-26T16:35:33.462Z,10.98
2023-03-26T16:40:35.992Z,10.86
2023-03-26T16:45:42.561Z,10.76
2023-03-26T16:50:46.459Z,10.58
2023-03-26T16:55:52.786Z,10.46
2023-03-26T17:01:04.703Z,10.40
2023-03-26T17:06:26.177Z,10.33
2023-03-26T17:11:31.436Z,10.23
2023-03-26T17:16:36.088Z,10.20
2023-03-26T17:21:45.527Z,10.18
2023-03-26T17:26:52.424Z,10.07
2023-03-26T17:32:00.445Z,9.99
2023-03-26T17:37:03.191Z,9.93
2023-03-26T17:42:16.172Z,9.89
2023-03-26T17:47:23.651Z,9.81
2023-03-26T17:52:26.052Z,9.77
2023-03-26T17:57:32.594Z,9.76
2023-03-26T18:02:37.118Z,9.69
2023-03-26T18:07:56.159Z,9.58
2023-03-26T18:13:04.586Z,9.52
2023-03-26T18:18:13.215Z,9.45
2023-03-26T18:23:22.077Z,9.35
2023-03-26T18:28:31.589Z,9.30
2023-03-26T18:33:42.069Z,9.28
2023-03-26T18:38:45.030Z,9.23
2023-03-26T18:43:46.849Z,9.17
2023-03-26T18:48:49.859Z,9.10
2023-03-26T18:53:52.593Z,8.91
2023-03-26T18:58:57.524Z,8.81
2023-03-26T19:04:03.586Z,8.70
2023-03-26T19:09:13.472Z,8.62
2023-03-26T19:14:22.129Z,8.49
2023-03-26T19:19:26.292Z,8.38
2023-03-26T19:24:28.023Z,8.18
2023-03-26T19:29:31.497Z,8.13
2023-03-26T19:34:35.332Z,8.06
2023-03-26T19:39:40.203Z,8.08
2023-03-26T19:44:42.309Z,7.98
2023-03-26T19:49:50.957Z,7.99
2023-03-26T19:55:00.227Z,7.89
2023-03-26T20:00:02.382Z,7.75
2023-03-26T20:05:11.618Z,7.50
2023-03-26T20:10:13.402Z,7.32
2023-03-26T20:15:19.273Z,7.25
2023-03-26T20:20:24.814Z,7.13
2023-03-26T20:25:30.966Z,6.98
2023-03-26T20:30:37.803Z,6.88
2023-03-26T20:35:42.219Z,6.86
2023-03-26T20:40:45.126Z,6.87
2023-03-26T20:45:48.437Z,6.86
2023-03-26T20:50:51.569Z,6.86
2023-03-26T20:55:53.248Z,6.85
2023-03-26T21:00:55.689Z,6.78
2023-03-26T21:06:01.307Z,6.79
2023-03-26T21:11:03.742Z,6.76
2023-03-26T21:16:06.489Z,6.69
2023-03-26T21:21:21.729Z,6.66
2023-03-26T21:26:26.308Z,6.66
2023-03-26T21:31:30.862Z,6.63
2023-03-26T21:36:35.163Z,6.63
2023-03-26T21:41:41.575Z,6.57
2023-03-26T21:46:43.872Z,6.60
2023-03-26T21:51:48.738Z,6.62
2023-03-26T21:56:56.829Z,6.63
2023-03-26T22:02:01.123Z,6.64
2023-03-26T22:07:05.712Z,6.67
2023-03-26T22:12:07.478Z,6.69
2023-03-26T22:17:09.173Z,6.67
2023-03-26T22:22:12.484Z,6.68
2023-03-26T22:27:15.958Z,6.60
2023-03-26T22:32:17.636Z,6.55
2023-03-26T22:37:20.638Z,6.38
2023-03-26T22:42:22.392Z,6.35
2023-03-26T22:47:24.852Z,6.32
2023-03-26T22:52:27.999Z,6.26
2023-03-26T22:57:29.663Z,6.16
2023-03-26T23:02:31.381Z,6.08
2023-03-26T23:07:34.564Z,5.97
2023-03-26T23:12:36.316Z,6.01
2023-03-26T23:17:38.335Z,5.92
2023-03-26T23:22:41.410Z,5.90
2023-03-26T23:27:43.128Z,5.88
2023-03-26T23:32:44.831Z,5.89
2023-03-26T23:37:50.734Z,5.87
2023-03-26T23:42:52.405Z,5.86
2023-03-26T23:47:54.118Z,5.78
2023-03-26T23:52:58.130Z,5.74
2023-03-26T23:57:59.822Z,5.63
